createdAt,value
2018-11-21T00:01:36.149Z,1.00
2018-11-21T00:04:23.992Z,1.00
2018-11-21T00:07:11.854Z,1.00
2018-11-21T00:09:59.460Z,1.00
2018-11-21T00:13:06.730Z,1.00
2018-11-21T00:15:54.342Z,1.00
2018-11-21T00:18:41.969Z,1.00
2018-11-21T00:21:29.602Z,1.00
2018-11-21T00:24:17.475Z,1.00
2018-11-21T00:27:05.098Z,1.00
2018-11-21T00:29:52.979Z,1.00
2018-11-21T00:32:40.583Z,1.00
2018-11-21T00:35:28.165Z,1.00
2018-11-21T00:38:15.752Z,1.00
2018-11-21T00:41:03.353Z,1.00
2018-11-21T00:43:51.016Z,1.00
2018-11-21T00:46:38.854Z,1.00
2018-11-21T00:49:26.483Z,1.00
2018-11-21T00:52:14.095Z,1.00
2018-11-21T00:55:02.409Z,1.00
2018-11-21T00:57:49.326Z,1.00
2018-11-21T01:00:36.950Z,1.00
2018-11-21T01:03:24.597Z,1.00
2018-11-21T01:06:12.219Z,1.00
2018-11-21T01:08:59.932Z,1.00
2018-11-21T01:14:54.635Z,1.00
2018-11-21T01:17:42.231Z,1.00
2018-11-21T01:20:29.808Z,1.00
2018-11-21T01:23:17.425Z,1.00
2018-11-21T01:26:05.256Z,1.00
2018-11-21T01:28:53.143Z,1.00
2018-11-21T01:31:40.762Z,1.50
2018-11-21T01:34:28.382Z,1.00
2018-11-21T01:37:15.959Z,1.60
2018-11-21T01:40:03.630Z,1.00
2018-11-21T01:42:51.204Z,1.60
2018-11-21T01:45:38.795Z,2.10
2018-11-21T01:48:26.396Z,2.40
2018-11-21T01:54:08.180Z,5.00
2018-11-21T01:56:55.801Z,6.50
2018-11-21T01:59:43.667Z,6.40
2018-11-21T02:02:31.271Z,9.10
2018-11-21T02:05:18.924Z,7.60
2018-11-21T02:08:06.729Z,7.10
2018-11-21T02:10:54.325Z,7.60
2018-11-21T02:13:41.910Z,8.60
2018-11-21T02:16:29.769Z,7.40
2018-11-21T02:22:24.446Z,8.10
2018-11-21T02:25:12.089Z,7.80
2018-11-21T02:27:59.655Z,8.60
2018-11-21T02:30:47.244Z,8.90
2018-11-21T02:33:35.083Z,9.10
2018-11-21T02:39:16.780Z,10.30
2018-11-21T02:42:04.555Z,10.20
2018-11-21T02:44:52.118Z,10.80
2018-11-21T02:47:39.768Z,12.60
2018-11-21T02:50:27.328Z,12.50
2018-11-21T02:53:15.018Z,11.80
2018-11-21T02:56:03.263Z,11.70
2018-11-21T02:58:50.847Z,11.90
2018-11-21T03:01:38.440Z,14.30
2018-11-21T03:04:26.721Z,11.30
2018-11-21T03:07:14.562Z,12.50
2018-11-21T03:10:02.142Z,14.10
2018-11-21T03:12:49.729Z,13.60
2018-11-21T03:15:37.297Z,12.30
2018-11-21T03:18:24.914Z,12.50
2018-11-21T03:21:13.372Z,14.30
2018-11-21T03:24:00.987Z,13.00
2018-11-21T03:26:48.558Z,14.40
2018-11-21T03:29:36.192Z,14.20
2018-11-21T03:32:23.796Z,14.30
2018-11-21T03:35:11.389Z,14.70
2018-11-21T03:37:58.973Z,17.20
2018-11-21T03:40:46.535Z,15.60
2018-11-21T03:43:34.150Z,16.80
2018-11-21T03:46:21.992Z,16.50
2018-11-21T03:49:09.621Z,19.70
2018-11-21T03:51:57.195Z,19.50
2018-11-21T03:54:45.109Z,19.80
2018-11-21T03:57:33.004Z,21.50
2018-11-21T04:00:20.629Z,22.40
2018-11-21T04:03:08.240Z,24.40
2018-11-21T04:05:56.108Z,26.90
2018-11-21T04:08:43.965Z,26.00
2018-11-21T04:11:31.560Z,24.90
2018-11-21T04:20:07.212Z,27.40
2018-11-21T04:26:01.875Z,28.60
2018-11-21T04:31:56.542Z,29.70
2018-11-21T04:34:44.421Z,31.00
2018-11-21T04:37:31.971Z,32.60
2018-11-21T04:40:19.606Z,31.80
2018-11-21T04:43:07.717Z,31.20
2018-11-21T04:45:55.464Z,31.30
2018-11-21T04:48:23.581Z,30.90
2018-11-21T04:50:51.832Z,30.80
2018-11-21T04:53:20.244Z,31.30
2018-11-21T04:55:48.387Z,33.10
2018-11-21T04:58:16.553Z,33.30
2018-11-21T05:00:44.763Z,32.30
2018-11-21T05:03:13.094Z,31.60
2018-11-21T05:05:41.289Z,32.60
2018-11-21T05:08:09.457Z,32.40
2018-11-21T05:10:38.116Z,32.80
2018-11-21T05:13:06.511Z,32.60
2018-11-21T05:15:34.935Z,33.50
2018-11-21T05:18:03.391Z,32.80
2018-11-21T05:20:31.811Z,33.70
2018-11-21T05:23:00.193Z,32.20
2018-11-21T05:25:28.318Z,31.20
2018-11-21T05:27:56.521Z,30.60
2018-11-21T05:30:24.766Z,29.90
2018-11-21T05:32:53.247Z,29.80
2018-11-21T05:35:21.426Z,29.50
2018-11-21T05:37:49.618Z,29.00
2018-11-21T05:40:17.750Z,28.30
2018-11-21T05:42:46.146Z,28.40
2018-11-21T05:45:14.570Z,26.80
2018-11-21T05:47:42.938Z,26.20
2018-11-21T05:50:12.360Z,24.70
2018-11-21T05:52:41.124Z,24.30
2018-11-21T05:55:09.311Z,23.40
2018-11-21T05:57:37.746Z,22.90
2018-11-21T06:00:08.787Z,22.80
2018-11-21T06:02:36.931Z,22.60
2018-11-21T06:05:05.249Z,21.70
2018-11-21T06:07:33.643Z,20.40
2018-11-21T06:10:01.841Z,21.10
2018-11-21T06:12:29.999Z,21.10
2018-11-21T06:14:58.187Z,20.30
2018-11-21T06:17:26.574Z,19.70
2018-11-21T06:19:54.958Z,18.40
2018-11-21T06:22:23.100Z,17.80
2018-11-21T06:24:51.268Z,17.50
2018-11-21T06:27:19.774Z,17.30
2018-11-21T06:29:48.320Z,16.60
2018-11-21T06:32:16.472Z,16.80
2018-11-21T06:34:45.305Z,15.60
2018-11-21T06:37:13.908Z,14.00
2018-11-21T06:39:42.357Z,13.00
2018-11-21T06:42:10.541Z,12.90
2018-11-21T06:44:38.983Z,11.90
2018-11-21T06:47:07.123Z,11.60
2018-11-21T06:49:35.635Z,11.60
2018-11-21T06:52:03.823Z,12.90
2018-11-21T06:54:31.979Z,12.90
2018-11-21T06:57:00.085Z,12.40
2018-11-21T06:59:28.397Z,11.10
2018-11-21T07:01:56.509Z,10.00
2018-11-21T07:04:24.774Z,9.30
2018-11-21T07:06:53.635Z,8.80
2018-11-21T07:09:21.811Z,8.60
2018-11-21T07:11:49.957Z,7.60
2018-11-21T07:14:18.432Z,6.60
2018-11-21T07:16:47.045Z,5.60
2018-11-21T07:19:15.266Z,5.80
2018-11-21T07:21:43.484Z,5.90
2018-11-21T07:24:11.853Z,5.60
2018-11-21T07:26:40.024Z,5.60
2018-11-21T07:29:08.179Z,4.60
2018-11-21T07:31:36.345Z,3.70
2018-11-21T07:34:04.623Z,3.90
2018-11-21T07:36:33.162Z,3.70
2018-11-21T07:39:01.317Z,3.50
2018-11-21T07:41:29.456Z,4.80
2018-11-21T07:43:57.671Z,5.60
2018-11-21T07:46:25.866Z,3.10
2018-11-21T07:48:54.052Z,2.60
2018-11-21T07:51:22.242Z,2.20
2018-11-21T07:53:50.408Z,1.90
2018-11-21T07:57:01.823Z,1.00
2018-11-21T07:59:30.658Z,1.00
2018-11-21T08:02:14.294Z,1.00
2018-11-21T08:04:49.672Z,1.00
2018-11-21T08:07:25.273Z,1.00
2018-11-21T08:10:18.378Z,1.00
2018-11-21T08:13:14.571Z,1.00
2018-11-21T08:16:07.702Z,1.00
2018-11-21T08:18:46.846Z,1.00
2018-11-21T08:21:29.834Z,1.00
2018-11-21T08:24:15.619Z,1.00
2018-11-21T08:26:51.287Z,1.00
2018-11-21T08:29:19.459Z,1.00
2018-11-21T08:31:47.589Z,1.00
2018-11-21T08:34:15.718Z,1.00
2018-11-21T08:36:43.842Z,1.00
2018-11-21T08:39:11.957Z,1.00
2018-11-21T08:41:40.410Z,1.00
2018-11-21T08:44:08.554Z,1.00
2018-11-21T08:46:36.740Z,1.00
2018-11-21T08:49:04.854Z,1.00
2018-11-21T08:51:33.248Z,1.00
2018-11-21T08:54:01.402Z,1.00
2018-11-21T08:56:29.857Z,1.00
2018-11-21T08:58:58.268Z,1.00
2018-11-21T09:01:26.419Z,1.00
2018-11-21T09:03:54.813Z,1.00
2018-11-21T09:06:22.934Z,1.00
2018-11-21T09:08:51.047Z,1.00
2018-11-21T09:11:19.459Z,1.00
2018-11-21T09:13:48.955Z,1.00
2018-11-21T09:16:16.413Z,1.00
2018-11-21T09:18:44.550Z,1.00
2018-11-21T09:21:12.697Z,1.00
2018-11-21T09:23:41.104Z,1.00
2018-11-21T09:26:09.278Z,1.00
2018-11-21T09:28:37.386Z,1.00
2018-11-21T09:31:05.585Z,1.00
2018-11-21T09:33:33.717Z,1.00
2018-11-21T09:36:01.853Z,1.00
2018-11-21T09:38:30.499Z,1.00
2018-11-21T09:40:58.913Z,1.00
2018-11-21T09:43:27.087Z,1.00
2018-11-21T09:45:55.968Z,1.00
2018-11-21T09:48:24.388Z,1.00
2018-11-21T09:50:52.738Z,1.00
2018-11-21T09:53:20.855Z,1.00
2018-11-21T09:55:48.975Z,1.00
2018-11-21T09:58:17.207Z,1.00
2018-11-21T10:01:22.125Z,1.00
2018-11-21T10:03:50.547Z,1.00
2018-11-21T10:06:20.929Z,1.00
2018-11-21T10:08:50.508Z,1.00
2018-11-21T10:11:19.377Z,1.00
2018-11-21T10:13:47.669Z,1.00
2018-11-21T10:16:15.827Z,1.00
2018-11-21T10:18:45.325Z,1.00
2018-11-21T10:21:15.038Z,1.00
2018-11-21T10:23:43.236Z,1.00
2018-11-21T10:26:12.173Z,1.00
2018-11-21T10:28:40.518Z,1.00
2018-11-21T10:31:09.057Z,1.00
2018-11-21T10:33:37.605Z,1.00
2018-11-21T10:36:05.819Z,1.00
2018-11-21T10:38:34.404Z,1.00
2018-11-21T10:41:02.798Z,1.00
2018-11-21T10:43:31.579Z,1.00
2018-11-21T10:45:59.710Z,1.00
2018-11-21T10:48:28.049Z,1.00
2018-11-21T10:50:56.243Z,1.00
2018-11-21T10:53:24.358Z,1.00
2018-11-21T10:55:53.230Z,1.00
2018-11-21T10:58:21.640Z,1.00
2018-11-21T11:01:07.685Z,1.00
2018-11-21T11:03:44.594Z,1.00
2018-11-21T11:06:30.429Z,1.00
2018-11-21T11:09:16.915Z,1.00
2018-11-21T11:12:15.482Z,1.00
2018-11-21T11:15:14.587Z,1.00
2018-11-21T11:18:00.350Z,1.00
2018-11-21T11:21:05.982Z,1.00
2018-11-21T11:23:52.155Z,1.00
2018-11-21T11:26:39.488Z,1.00
2018-11-21T11:29:25.265Z,1.00
2018-11-21T11:32:17.826Z,1.00
2018-11-21T11:35:05.629Z,1.00
2018-11-21T11:37:51.162Z,1.00
2018-11-21T11:40:36.753Z,1.00
2018-11-21T11:43:24.121Z,1.00
2018-11-21T11:46:17.329Z,1.00
2018-11-21T11:49:04.931Z,1.00
2018-11-21T11:52:03.892Z,1.00
2018-11-21T11:54:41.674Z,1.00
2018-11-21T11:57:27.576Z,1.00
2018-11-21T12:00:17.528Z,1.00
2018-11-21T12:03:03.026Z,1.00
2018-11-21T12:05:56.056Z,1.00
2018-11-21T12:08:30.952Z,1.00
2018-11-21T12:11:10.706Z,1.00
2018-11-21T12:14:13.227Z,1.00
2018-11-21T12:17:08.690Z,1.00
2018-11-21T12:19:43.410Z,1.00
2018-11-21T12:22:29.001Z,1.00
2018-11-21T12:25:18.054Z,1.00
2018-11-21T12:28:10.912Z,1.00
2018-11-21T12:30:56.528Z,1.00
2018-11-21T12:33:39.478Z,1.00
2018-11-21T12:36:38.779Z,1.00
2018-11-21T12:39:31.099Z,1.00
2018-11-21T12:42:16.975Z,1.00
2018-11-21T12:45:04.305Z,1.00
2018-11-21T12:47:58.225Z,1.00
2018-11-21T12:50:36.362Z,1.00
2018-11-21T12:53:19.406Z,1.00
2018-11-21T12:56:15.583Z,1.00
2018-11-21T12:59:01.386Z,1.00
2018-11-21T13:01:41.550Z,1.00
2018-11-21T13:04:27.643Z,1.00
2018-11-21T13:07:12.202Z,1.00
2018-11-21T13:09:57.823Z,1.00
2018-11-21T13:12:35.485Z,1.00
2018-11-21T13:15:21.036Z,1.00
2018-11-21T13:18:07.067Z,1.00
2018-11-21T13:20:59.984Z,1.00
2018-11-21T13:23:46.031Z,1.00
2018-11-21T13:26:40.984Z,1.00
2018-11-21T13:29:26.870Z,1.00
2018-11-21T13:32:09.073Z,1.00
2018-11-21T13:34:54.660Z,1.00
2018-11-21T13:37:50.378Z,1.00
2018-11-21T13:40:36.082Z,1.00
2018-11-21T13:43:23.484Z,1.00
2018-11-21T13:46:09.574Z,1.00
2018-11-21T13:48:55.740Z,1.00
2018-11-21T13:51:41.486Z,1.00
2018-11-21T13:54:27.283Z,1.00
2018-11-21T13:56:55.498Z,1.00
2018-11-21T13:59:23.811Z,1.00
2018-11-21T14:01:51.950Z,1.00
2018-11-21T14:04:20.045Z,1.00
2018-11-21T14:06:48.198Z,1.00
2018-11-21T14:09:19.947Z,1.00
2018-11-21T14:11:49.209Z,1.00
2018-11-21T14:14:17.453Z,1.00
2018-11-21T14:16:45.591Z,1.00
2018-11-21T14:19:14.002Z,1.00
2018-11-21T14:21:42.180Z,1.00
2018-11-21T14:24:10.337Z,1.00
2018-11-21T14:26:38.661Z,1.00
2018-11-21T14:29:06.782Z,1.00
2018-11-21T14:31:34.984Z,1.00
2018-11-21T14:34:03.154Z,1.00
2018-11-21T14:36:31.309Z,1.00
2018-11-21T14:38:59.511Z,1.00
2018-11-21T14:41:28.402Z,1.00
2018-11-21T14:43:56.592Z,1.00
2018-11-21T14:46:24.959Z,1.00
2018-11-21T14:48:53.110Z,1.00
2018-11-21T14:51:21.256Z,1.00
2018-11-21T14:53:49.529Z,1.00
2018-11-21T14:56:18.112Z,1.00
2018-11-21T14:58:46.270Z,1.00
2018-11-21T15:01:14.571Z,1.00
2018-11-21T15:03:42.768Z,1.00
2018-11-21T15:06:11.123Z,1.00
2018-11-21T15:08:39.313Z,1.00
2018-11-21T15:11:07.435Z,1.00
2018-11-21T15:13:35.776Z,1.00
2018-11-21T15:16:03.908Z,1.00
2018-11-21T15:18:32.244Z,1.00
2018-11-21T15:21:00.373Z,1.00
2018-11-21T15:23:28.512Z,1.00
2018-11-21T15:25:57.505Z,1.00
2018-11-21T15:28:25.781Z,1.00
2018-11-21T15:30:53.920Z,1.00
2018-11-21T15:33:22.288Z,1.00
2018-11-21T15:35:50.471Z,1.00
2018-11-21T15:38:18.915Z,1.00
2018-11-21T15:40:47.139Z,1.00
2018-11-21T15:43:15.581Z,1.00
2018-11-21T15:45:44.853Z,1.00
2018-11-21T15:48:13.002Z,1.00
2018-11-21T15:50:41.156Z,1.00
2018-11-21T15:53:09.289Z,1.00
2018-11-21T15:55:37.589Z,1.00
2018-11-21T15:58:06.163Z,1.00
2018-11-21T16:00:35.192Z,1.00
2018-11-21T16:03:04.991Z,1.00
2018-11-21T16:05:33.266Z,1.00
2018-11-21T16:08:03.482Z,1.00
2018-11-21T16:10:36.923Z,1.00
2018-11-21T16:13:05.410Z,1.00
2018-11-21T16:15:53.559Z,1.00
2018-11-21T16:18:23.310Z,1.00
2018-11-21T16:20:53.084Z,1.00
2018-11-21T16:23:19.919Z,1.00
2018-11-21T16:25:48.387Z,1.00
2018-11-21T16:28:16.721Z,1.00
2018-11-21T16:30:45.180Z,1.00
2018-11-21T16:33:13.305Z,1.00
2018-11-21T16:35:41.730Z,1.00
2018-11-21T16:38:10.120Z,1.00
2018-11-21T16:40:38.398Z,1.00
2018-11-21T16:43:06.901Z,1.00
2018-11-21T16:45:37.590Z,1.00
2018-11-21T16:48:05.943Z,1.00
2018-11-21T16:50:34.313Z,1.00
2018-11-21T16:53:02.638Z,1.00
2018-11-21T16:55:31.465Z,1.00
2018-11-21T16:58:00.691Z,1.00
2018-11-21T17:00:29.928Z,1.00
2018-11-21T17:02:58.050Z,1.00
2018-11-21T17:05:26.951Z,1.00
2018-11-21T17:07:55.078Z,1.00
2018-11-21T17:10:25.081Z,1.00
2018-11-21T17:12:53.178Z,1.00
2018-11-21T17:15:22.887Z,1.00
2018-11-21T17:17:51.056Z,1.00
2018-11-21T17:20:23.488Z,1.00
2018-11-21T17:22:53.193Z,1.00
2018-11-21T17:25:22.801Z,1.00
2018-11-21T17:27:51.030Z,1.00
2018-11-21T17:30:20.606Z,1.00
2018-11-21T17:32:48.935Z,1.00
2018-11-21T17:35:17.986Z,1.00
2018-11-21T17:37:46.126Z,1.00
2018-11-21T17:40:16.801Z,1.00
2018-11-21T17:42:45.357Z,1.00
2018-11-21T17:45:14.471Z,1.00
2018-11-21T17:47:42.623Z,1.00
2018-11-21T17:50:13.150Z,1.00
2018-11-21T17:52:41.261Z,1.00
2018-11-21T17:55:11.509Z,1.00
2018-11-21T17:57:39.768Z,1.00
2018-11-21T18:00:15.990Z,1.00
2018-11-21T18:02:44.406Z,1.00
2018-11-21T18:05:14.117Z,1.00
2018-11-21T18:07:42.302Z,1.00
2018-11-21T18:10:12.786Z,1.00
2018-11-21T18:12:41.026Z,1.00
2018-11-21T18:15:10.325Z,1.00
2018-11-21T18:17:38.440Z,1.00
2018-11-21T18:20:08.262Z,1.00
2018-11-21T18:22:36.416Z,1.00
2018-11-21T18:25:06.613Z,1.00
2018-11-21T18:27:34.738Z,1.00
2018-11-21T18:30:03.082Z,1.00
2018-11-21T18:32:31.440Z,1.00
2018-11-21T18:34:59.595Z,1.00
2018-11-21T18:37:27.733Z,1.00
2018-11-21T18:39:55.873Z,1.00
2018-11-21T18:42:24.285Z,1.00
2018-11-21T18:44:52.477Z,1.00
2018-11-21T18:47:20.621Z,1.00
2018-11-21T18:49:49.038Z,1.00
2018-11-21T18:52:17.160Z,1.00
2018-11-21T18:54:45.534Z,1.00
2018-11-21T18:57:32.919Z,1.00
2018-11-21T19:00:11.783Z,1.00
2018-11-21T19:02:40.020Z,1.00
2018-11-21T19:05:08.172Z,1.00
2018-11-21T19:07:36.279Z,1.00
2018-11-21T19:10:07.400Z,1.00
2018-11-21T19:12:36.067Z,1.00
2018-11-21T19:15:04.522Z,1.00
2018-11-21T19:17:32.801Z,1.00
2018-11-21T19:20:00.962Z,1.00
2018-11-21T19:22:29.084Z,1.00
2018-11-21T19:24:57.530Z,1.00
2018-11-21T19:27:25.945Z,1.00
2018-11-21T19:29:54.107Z,1.00
2018-11-21T19:32:22.470Z,1.00
2018-11-21T19:34:50.679Z,1.00
2018-11-21T19:37:18.817Z,1.00
2018-11-21T19:39:47.178Z,1.00
2018-11-21T19:42:20.107Z,1.00
